createdAt,value
2023-01-24T00:00:44.842Z,0.80
2023-01-24T00:03:13.668Z,0.87
2023-01-24T00:05:41.796Z,0.80
2023-01-24T00:08:09.773Z,0.90
2023-01-24T00:10:37.586Z,0.80
2023-01-24T00:13:07.308Z,0.80
2023-01-24T00:15:35.289Z,0.70
2023-01-24T00:18:03.136Z,0.80
2023-01-24T00:20:30.921Z,0.90
2023-01-24T00:22:58.928Z,0.80
2023-01-24T00:25:26.657Z,0.80
2023-01-24T00:27:54.419Z,0.80
2023-01-24T00:30:23.645Z,0.70
2023-01-24T00:32:51.427Z,0.70
2023-01-24T00:35:19.683Z,0.80
2023-01-24T00:37:47.769Z,0.70
2023-01-24T00:40:15.556Z,0.50
2023-01-24T00:42:43.313Z,0.70
2023-01-24T00:45:11.329Z,0.70
2023-01-24T00:47:40.614Z,0.77
2023-01-24T00:50:09.873Z,0.70
2023-01-24T00:52:37.763Z,0.80
2023-01-24T00:55:05.849Z,0.80
2023-01-24T00:57:33.670Z,0.80
2023-01-24T01:00:01.454Z,0.80
2023-01-24T01:02:29.286Z,0.80
2023-01-24T01:04:58.447Z,0.80
2023-01-24T01:07:26.379Z,0.73
2023-01-24T01:09:54.084Z,0.70
2023-01-24T01:12:21.903Z,0.80
2023-01-24T01:14:49.770Z,0.63
2023-01-24T01:17:17.744Z,0.80
2023-01-24T01:19:45.802Z,0.77
2023-01-24T01:22:15.039Z,0.77
2023-01-24T01:24:42.771Z,0.80
2023-01-24T01:27:10.650Z,0.70
2023-01-24T01:29:38.404Z,0.90
2023-01-24T01:32:06.495Z,0.90
2023-01-24T01:34:34.340Z,0.90
2023-01-24T01:37:02.099Z,0.83
2023-01-24T01:39:31.313Z,0.70
2023-01-24T01:41:59.128Z,0.80
2023-01-24T01:44:44.404Z,0.80
2023-01-24T01:47:17.711Z,0.80
2023-01-24T01:49:47.628Z,0.80
2023-01-24T01:52:18.654Z,0.80
2023-01-24T01:54:48.774Z,0.90
2023-01-24T01:57:18.197Z,0.80
2023-01-24T01:59:50.292Z,0.90
2023-01-24T02:02:19.842Z,0.80
2023-01-24T02:04:48.876Z,0.80
2023-01-24T02:07:19.547Z,0.90
2023-01-24T02:09:49.933Z,0.83
2023-01-24T02:12:20.285Z,0.90
2023-01-24T02:15:06.311Z,0.80
2023-01-24T02:17:34.175Z,0.87
2023-01-24T02:20:07.959Z,0.77
2023-01-24T02:22:41.037Z,0.90
2023-01-24T02:25:16.947Z,0.80
2023-01-24T02:27:46.163Z,0.80
2023-01-24T02:30:14.184Z,0.80
2023-01-24T02:32:42.040Z,0.80
2023-01-24T02:35:23.672Z,0.80
2023-01-24T02:37:51.653Z,0.80
2023-01-24T02:40:19.721Z,0.80
2023-01-24T02:42:49.271Z,0.80
2023-01-24T02:45:18.844Z,0.80
2023-01-24T02:47:48.694Z,0.80
2023-01-24T02:50:16.557Z,0.87
2023-01-24T02:53:01.786Z,0.80
2023-01-24T02:55:29.519Z,0.70
2023-01-24T02:58:06.789Z,0.77
2023-01-24T03:00:34.557Z,0.83
2023-01-24T03:03:03.876Z,0.70
2023-01-24T03:05:40.817Z,0.80
2023-01-24T03:08:11.894Z,0.80
2023-01-24T03:10:39.713Z,0.80
2023-01-24T03:13:26.251Z,0.80
2023-01-24T03:16:11.471Z,0.80
2023-01-24T03:18:56.847Z,0.70
2023-01-24T03:21:42.135Z,0.80
2023-01-24T03:24:27.415Z,0.80
2023-01-24T03:27:12.489Z,0.80
2023-01-24T03:29:59.392Z,0.60
2023-01-24T03:32:44.793Z,0.80
2023-01-24T03:35:12.593Z,0.80
2023-01-24T03:37:57.865Z,0.80
2023-01-24T03:40:25.624Z,0.90
2023-01-24T03:42:53.373Z,0.90
2023-01-24T03:45:24.162Z,0.70
2023-01-24T03:48:05.920Z,0.70
2023-01-24T03:50:52.386Z,0.80
2023-01-24T03:53:21.181Z,0.80
2023-01-24T03:55:50.435Z,0.80
2023-01-24T03:58:18.146Z,0.80
2023-01-24T04:00:47.431Z,0.90
2023-01-24T04:03:15.405Z,0.80
2023-01-24T04:05:43.154Z,0.90
2023-01-24T04:08:10.905Z,0.90
2023-01-24T04:10:39.639Z,0.90
2023-01-24T04:13:07.377Z,0.83
2023-01-24T04:15:35.189Z,0.90
2023-01-24T04:18:05.109Z,0.90
2023-01-24T04:20:33.558Z,0.90
2023-01-24T04:23:02.212Z,0.90
2023-01-24T04:25:30.183Z,0.80
2023-01-24T04:27:58.280Z,0.90
2023-01-24T04:30:26.129Z,0.90
2023-01-24T04:32:53.868Z,0.80
2023-01-24T04:35:25.443Z,0.90
2023-01-24T04:37:53.405Z,0.80
2023-01-24T04:40:21.217Z,0.80
2023-01-24T04:42:49.038Z,0.80
2023-01-24T04:45:16.892Z,0.80
2023-01-24T04:47:44.685Z,0.80
2023-01-24T04:50:12.683Z,0.80
2023-01-24T04:52:42.911Z,0.80
2023-01-24T04:55:10.852Z,0.80
2023-01-24T04:57:38.617Z,0.70
2023-01-24T05:00:08.908Z,0.80
2023-01-24T05:02:38.467Z,0.70
2023-01-24T05:05:06.912Z,0.80
2023-01-24T05:07:34.693Z,0.80
2023-01-24T05:10:03.936Z,0.80
2023-01-24T05:12:31.679Z,0.80
2023-01-24T05:14:59.464Z,0.87
2023-01-24T05:17:27.211Z,0.80
2023-01-24T05:19:55.014Z,0.80
2023-01-24T05:22:22.780Z,0.80
2023-01-24T05:24:50.536Z,0.80
2023-01-24T05:27:19.723Z,0.80
2023-01-24T05:29:47.567Z,0.90
2023-01-24T05:32:15.305Z,0.80
2023-01-24T05:34:43.042Z,0.80
2023-01-24T05:37:11.021Z,0.90
2023-01-24T05:39:38.826Z,0.90
2023-01-24T05:42:06.644Z,0.90
2023-01-24T05:44:35.814Z,0.80
2023-01-24T05:47:03.630Z,0.80
2023-01-24T05:49:31.365Z,0.80
2023-01-24T05:51:59.117Z,0.80
2023-01-24T05:54:26.873Z,0.90
2023-01-24T05:56:54.885Z,0.90
2023-01-24T05:59:22.632Z,0.80
2023-01-24T06:01:51.802Z,0.80
2023-01-24T06:04:19.624Z,0.90
2023-01-24T06:06:47.429Z,0.80
2023-01-24T06:09:15.195Z,0.80
2023-01-24T06:11:42.959Z,0.80
2023-01-24T06:14:10.708Z,0.80
2023-01-24T06:16:40.127Z,0.90
2023-01-24T06:19:10.610Z,0.77
2023-01-24T06:21:44.180Z,0.80
2023-01-24T06:24:16.342Z,0.80
2023-01-24T06:26:44.333Z,0.80
2023-01-24T06:29:12.700Z,0.80
2023-01-24T06:31:42.167Z,0.80
2023-01-24T06:34:24.136Z,0.80
2023-01-24T06:36:56.352Z,0.80
2023-01-24T06:39:24.414Z,0.80
2023-01-24T06:41:52.497Z,0.90
2023-01-24T06:44:20.614Z,0.90
2023-01-24T06:46:48.316Z,0.80
2023-01-24T06:49:16.539Z,0.90
2023-01-24T06:51:50.625Z,0.90
2023-01-24T06:54:18.462Z,0.90
2023-01-24T06:56:47.055Z,0.90
2023-01-24T06:59:14.775Z,0.80
2023-01-24T07:01:42.525Z,0.80
2023-01-24T07:04:10.415Z,0.80
2023-01-24T07:06:38.202Z,1.00
2023-01-24T07:09:07.660Z,0.80
2023-01-24T07:11:35.481Z,0.90
2023-01-24T07:14:03.346Z,0.80
2023-01-24T07:16:31.123Z,0.97
2023-01-24T07:18:59.097Z,0.87
2023-01-24T07:21:27.238Z,1.00
2023-01-24T07:23:56.192Z,0.90
2023-01-24T07:26:25.964Z,0.90
2023-01-24T07:28:53.727Z,0.70
2023-01-24T07:31:21.652Z,0.90
2023-01-24T07:33:49.617Z,1.00
2023-01-24T07:36:17.760Z,0.90
2023-01-24T07:38:45.531Z,0.80
2023-01-24T07:41:13.307Z,0.83
2023-01-24T07:43:42.518Z,0.77
2023-01-24T07:46:10.410Z,0.80
2023-01-24T07:48:38.416Z,0.80
2023-01-24T07:51:06.400Z,0.90
2023-01-24T07:53:34.184Z,0.90
2023-01-24T07:56:02.969Z,0.80
2023-01-24T07:58:30.973Z,0.90
2023-01-24T08:01:00.244Z,0.80
2023-01-24T08:03:28.145Z,0.80
2023-01-24T08:05:55.975Z,0.87
2023-01-24T08:08:23.707Z,0.80
2023-01-24T08:10:51.444Z,0.80
2023-01-24T08:13:19.209Z,0.90
2023-01-24T08:15:47.009Z,0.83
2023-01-24T08:18:16.227Z,0.80
2023-01-24T08:20:44.039Z,0.80
2023-01-24T08:23:11.804Z,0.90
2023-01-24T08:25:39.599Z,0.80
2023-01-24T08:28:07.470Z,0.80
2023-01-24T08:30:35.263Z,0.80
2023-01-24T08:33:03.176Z,0.90
2023-01-24T08:35:32.743Z,0.87
2023-01-24T08:38:00.537Z,0.73
2023-01-24T08:40:31.247Z,0.87
2023-01-24T08:43:01.443Z,0.80
2023-01-24T08:45:29.416Z,0.90
2023-01-24T08:47:57.188Z,0.80
2023-01-24T08:50:25.296Z,0.80
2023-01-24T08:52:55.976Z,0.80
2023-01-24T08:55:24.213Z,0.80
2023-01-24T08:57:52.373Z,0.90
2023-01-24T09:00:20.602Z,0.90
2023-01-24T09:02:48.420Z,0.80
2023-01-24T09:05:16.250Z,0.90
2023-01-24T09:07:44.599Z,0.80
2023-01-24T09:10:14.084Z,0.80
2023-01-24T09:12:41.793Z,0.80
2023-01-24T09:15:10.251Z,0.77
2023-01-24T09:17:38.710Z,0.80
2023-01-24T09:20:07.629Z,0.90
2023-01-24T09:22:35.446Z,0.80
2023-01-24T09:25:04.769Z,0.90
2023-01-24T09:27:34.024Z,0.87
2023-01-24T09:30:01.864Z,0.80
2023-01-24T09:32:30.295Z,0.80
2023-01-24T09:34:58.116Z,0.80
2023-01-24T09:37:25.944Z,0.80
2023-01-24T09:39:56.992Z,0.87
2023-01-24T09:42:29.574Z,0.80
2023-01-24T09:45:02.706Z,0.80
2023-01-24T09:47:39.626Z,0.80
2023-01-24T09:50:12.921Z,0.90
2023-01-24T09:52:42.088Z,0.90
2023-01-24T09:55:14.188Z,0.80
2023-01-24T09:57:46.803Z,0.80
2023-01-24T10:00:19.118Z,0.80
2023-01-24T10:02:46.893Z,0.80
2023-01-24T10:05:15.580Z,0.80
2023-01-24T10:07:55.594Z,0.80
2023-01-24T10:10:31.385Z,0.90
2023-01-24T10:13:02.384Z,0.80
2023-01-24T10:15:41.488Z,0.90
2023-01-24T10:18:17.848Z,0.90
2023-01-24T10:20:52.070Z,0.80
2023-01-24T10:23:22.803Z,0.80
2023-01-24T10:25:52.331Z,0.80
2023-01-24T10:28:25.124Z,0.80
2023-01-24T10:31:01.237Z,0.80
2023-01-24T10:33:32.083Z,0.80
2023-01-24T10:36:02.324Z,0.80
2023-01-24T10:38:30.477Z,0.70
2023-01-24T10:41:01.094Z,0.80
2023-01-24T10:43:31.767Z,0.70
2023-01-24T10:46:06.712Z,0.80
2023-01-24T10:48:41.026Z,0.70
2023-01-24T10:51:12.937Z,0.70
2023-01-24T10:53:40.727Z,0.80
2023-01-24T10:56:08.639Z,0.70
2023-01-24T10:58:39.363Z,0.70
2023-01-24T11:01:09.870Z,0.70
2023-01-24T11:03:42.038Z,0.80
2023-01-24T11:06:22.544Z,0.70
2023-01-24T11:08:54.769Z,0.70
2023-01-24T11:11:24.442Z,0.70
2023-01-24T11:13:56.578Z,0.70
2023-01-24T11:16:28.610Z,0.70
2023-01-24T11:18:58.536Z,0.70
2023-01-24T11:21:26.406Z,0.70
2023-01-24T11:24:01.734Z,0.70
2023-01-24T11:26:30.777Z,0.70
2023-01-24T11:29:02.489Z,0.70
2023-01-24T11:31:34.404Z,0.60
2023-01-24T11:34:20.935Z,0.60
2023-01-24T11:36:52.134Z,0.50
2023-01-24T11:39:24.474Z,0.60
2023-01-24T11:41:56.184Z,0.60
2023-01-24T11:44:34.223Z,0.70
2023-01-24T11:47:08.785Z,0.60
2023-01-24T11:49:48.290Z,0.50
2023-01-24T11:52:30.904Z,0.50
2023-01-24T11:55:05.195Z,0.50
2023-01-24T11:57:39.336Z,0.60
2023-01-24T12:00:18.633Z,0.50
2023-01-24T12:02:57.129Z,0.57
2023-01-24T12:05:34.104Z,0.50
2023-01-24T12:08:09.987Z,0.50
2023-01-24T12:10:44.829Z,0.50
2023-01-24T12:13:17.173Z,0.50
2023-01-24T12:15:53.854Z,0.40
2023-01-24T12:18:30.930Z,0.50
2023-01-24T12:21:00.095Z,0.50
2023-01-24T12:23:30.931Z,0.50
2023-01-24T12:26:02.557Z,0.50
2023-01-24T12:28:34.353Z,0.40
2023-01-24T12:31:03.794Z,0.60
2023-01-24T12:33:34.501Z,0.60
2023-01-24T12:36:05.072Z,0.60
2023-01-24T12:38:37.197Z,0.60
2023-01-24T12:41:08.559Z,0.57
2023-01-24T12:43:40.811Z,0.60
2023-01-24T12:46:11.243Z,0.60
2023-01-24T12:48:42.609Z,0.50
2023-01-24T12:51:15.233Z,0.60
2023-01-24T12:53:47.940Z,0.60
2023-01-24T12:56:17.793Z,0.50
2023-01-24T12:58:48.948Z,0.50
2023-01-24T13:01:32.698Z,0.50
2023-01-24T13:04:11.806Z,0.50
2023-01-24T13:06:46.422Z,0.60
2023-01-24T13:09:18.456Z,0.60
2023-01-24T13:11:47.432Z,0.60
2023-01-24T13:14:18.456Z,0.60
2023-01-24T13:17:01.185Z,0.60
2023-01-24T13:19:40.661Z,0.50
2023-01-24T13:22:13.331Z,0.60
2023-01-24T13:24:49.706Z,0.60
2023-01-24T13:27:24.474Z,0.70
2023-01-24T13:29:59.983Z,0.50
2023-01-24T13:32:28.045Z,0.60
2023-01-24T13:34:58.457Z,0.60
2023-01-24T13:37:27.555Z,0.50
2023-01-24T13:40:02.327Z,0.60
2023-01-24T13:42:39.839Z,0.60
2023-01-24T13:45:26.744Z,0.50
2023-01-24T13:47:55.251Z,0.50
2023-01-24T13:50:24.818Z,0.43
2023-01-24T13:52:53.710Z,0.40
2023-01-24T13:55:40.210Z,0.50
2023-01-24T13:58:20.637Z,0.50
2023-01-24T14:00:51.116Z,0.40
2023-01-24T14:03:21.449Z,0.50
2023-01-24T14:05:52.043Z,0.40
2023-01-24T14:08:38.492Z,0.40
2023-01-24T14:11:36.559Z,0.40
2023-01-24T14:14:23.098Z,0.40
2023-01-24T14:17:02.113Z,0.40
2023-01-24T14:19:32.274Z,0.40
2023-01-24T14:22:06.390Z,0.40
2023-01-24T14:24:35.766Z,0.43
2023-01-24T14:27:13.262Z,0.60
2023-01-24T14:29:42.360Z,0.60
2023-01-24T14:32:19.910Z,0.60
2023-01-24T14:34:50.006Z,0.50
2023-01-24T14:37:20.233Z,0.60
2023-01-24T14:39:48.499Z,0.40
2023-01-24T14:42:17.157Z,0.50
2023-01-24T14:44:51.379Z,0.50
2023-01-24T14:47:21.330Z,0.50
2023-01-24T14:49:49.809Z,0.50
2023-01-24T14:52:22.589Z,0.50
2023-01-24T14:54:52.645Z,0.60
2023-01-24T14:57:24.528Z,0.57
2023-01-24T15:00:02.229Z,0.60
2023-01-24T15:02:30.115Z,0.60
2023-01-24T15:04:57.887Z,0.40
2023-01-24T15:07:27.730Z,0.53
2023-01-24T15:09:55.555Z,0.50
2023-01-24T15:12:26.538Z,0.50
2023-01-24T15:14:55.437Z,0.50
2023-01-24T15:17:24.782Z,0.50
2023-01-24T15:19:56.415Z,0.50
2023-01-24T15:22:25.304Z,0.50
2023-01-24T15:24:55.697Z,0.60
2023-01-24T15:27:25.897Z,0.50
2023-01-24T15:30:06.987Z,0.60
2023-01-24T15:32:42.191Z,0.43
2023-01-24T15:35:30.599Z,0.47
2023-01-24T15:38:11.342Z,0.60
2023-01-24T15:40:49.116Z,0.60
2023-01-24T15:43:37.071Z,0.50
2023-01-24T15:46:23.588Z,0.50
2023-01-24T15:48:57.698Z,0.50
2023-01-24T15:51:29.775Z,0.60
2023-01-24T15:53:57.561Z,0.50
2023-01-24T15:56:27.573Z,0.50
2023-01-24T15:58:55.337Z,0.60
2023-01-24T16:01:23.276Z,0.50
2023-01-24T16:03:51.083Z,0.50
2023-01-24T16:06:18.897Z,0.50
2023-01-24T16:08:48.657Z,0.60
2023-01-24T16:11:16.613Z,0.50
2023-01-24T16:13:47.200Z,0.50
2023-01-24T16:16:16.023Z,0.50
2023-01-24T16:18:43.956Z,0.50
2023-01-24T16:21:11.973Z,0.50
2023-01-24T16:23:41.023Z,0.50
2023-01-24T16:26:15.967Z,0.50
2023-01-24T16:28:45.122Z,0.50
2023-01-24T16:31:13.062Z,0.50
2023-01-24T16:33:40.987Z,0.50
2023-01-24T16:36:09.023Z,0.60
2023-01-24T16:38:36.861Z,0.50
2023-01-24T16:41:04.783Z,0.50
2023-01-24T16:43:32.645Z,0.60
2023-01-24T16:46:02.036Z,0.60
2023-01-24T16:48:31.580Z,0.50
2023-01-24T16:50:59.780Z,0.60
2023-01-24T16:53:27.532Z,0.50
2023-01-24T16:55:58.623Z,0.63
2023-01-24T16:58:26.497Z,0.60
2023-01-24T17:00:54.251Z,0.60
2023-01-24T17:03:23.465Z,0.70
2023-01-24T17:05:51.316Z,0.60
2023-01-24T17:08:19.109Z,0.50
2023-01-24T17:10:46.872Z,0.60
2023-01-24T17:13:14.664Z,0.50
2023-01-24T17:15:42.848Z,0.50
2023-01-24T17:18:11.511Z,0.40
2023-01-24T17:20:40.772Z,0.50
2023-01-24T17:23:08.608Z,0.60
2023-01-24T17:25:36.369Z,0.60
2023-01-24T17:28:04.274Z,0.60
2023-01-24T17:30:32.059Z,0.60
2023-01-24T17:32:59.946Z,0.60
2023-01-24T17:35:27.862Z,0.60
2023-01-24T17:37:57.037Z,0.60
2023-01-24T17:40:24.919Z,0.67
2023-01-24T17:42:52.664Z,0.60
2023-01-24T17:45:20.453Z,0.60
2023-01-24T17:47:48.216Z,0.60
2023-01-24T17:50:16.155Z,0.80
2023-01-24T17:52:43.985Z,0.70
2023-01-24T17:55:13.323Z,0.70
2023-01-24T17:57:41.101Z,0.60
2023-01-24T18:00:09.781Z,0.70
2023-01-24T18:02:37.579Z,0.60
2023-01-24T18:05:05.662Z,0.70
2023-01-24T18:07:33.590Z,0.70
2023-01-24T18:10:01.369Z,0.80
2023-01-24T18:12:30.647Z,0.80
2023-01-24T18:14:58.405Z,0.70
2023-01-24T18:17:26.201Z,0.70
2023-01-24T18:19:53.988Z,0.80
2023-01-24T18:22:21.779Z,0.80
2023-01-24T18:24:49.570Z,0.60
2023-01-24T18:27:17.453Z,0.80
2023-01-24T18:29:46.740Z,0.70
2023-01-24T18:32:14.561Z,0.80
2023-01-24T18:34:42.359Z,0.70
2023-01-24T18:37:10.173Z,0.70
2023-01-24T18:39:38.016Z,0.73
2023-01-24T18:42:08.320Z,0.63
2023-01-24T18:44:36.588Z,0.70
2023-01-24T18:47:05.818Z,0.60
2023-01-24T18:49:33.853Z,0.67
2023-01-24T18:52:01.681Z,0.73
2023-01-24T18:54:29.603Z,0.70
2023-01-24T18:56:57.392Z,0.60
2023-01-24T18:59:25.144Z,0.70
2023-01-24T19:01:53.022Z,0.77
2023-01-24T19:04:22.221Z,0.77
2023-01-24T19:06:50.050Z,0.80
2023-01-24T19:09:17.952Z,0.63
2023-01-24T19:11:46.960Z,0.80
2023-01-24T19:14:14.842Z,0.80
2023-01-24T19:16:43.757Z,0.70
2023-01-24T19:19:13.060Z,0.70
2023-01-24T19:21:42.666Z,0.70
2023-01-24T19:24:10.696Z,0.80
2023-01-24T19:26:38.505Z,0.70
2023-01-24T19:29:06.641Z,0.70
2023-01-24T19:31:34.441Z,0.80
2023-01-24T19:34:05.064Z,0.70
2023-01-24T19:36:33.091Z,0.80
2023-01-24T19:39:02.754Z,0.70
2023-01-24T19:41:30.782Z,0.77
2023-01-24T19:46:47.828Z,0.80
2023-01-24T19:49:15.712Z,0.77
2023-01-24T19:51:43.455Z,0.70
2023-01-24T19:54:12.652Z,0.70
2023-01-24T19:56:40.466Z,0.70
2023-01-24T19:59:08.368Z,0.73
2023-01-24T20:01:36.497Z,0.83
2023-01-24T20:06:53.131Z,0.80
2023-01-24T20:09:22.580Z,0.70
2023-01-24T20:11:51.829Z,0.70
2023-01-24T20:14:19.764Z,0.70
2023-01-24T20:16:47.733Z,0.70
2023-01-24T20:19:27.176Z,0.90
2023-01-24T20:21:56.474Z,0.80
2023-01-24T20:24:25.915Z,0.80
2023-01-24T20:26:53.921Z,0.70
2023-01-24T20:29:21.767Z,0.80
2023-01-24T20:31:49.643Z,0.80
2023-01-24T20:34:18.324Z,0.70
2023-01-24T20:36:47.396Z,0.80
2023-01-24T20:39:15.162Z,0.80
2023-01-24T20:41:46.428Z,0.70
2023-01-24T20:44:25.811Z,0.70
2023-01-24T20:46:54.062Z,0.70
2023-01-24T20:49:22.036Z,0.67
2023-01-24T20:51:49.901Z,0.70
2023-01-24T20:54:17.828Z,0.80
2023-01-24T20:56:47.785Z,0.83
2023-01-24T20:59:15.606Z,0.80
2023-01-24T21:01:44.920Z,0.70
2023-01-24T21:04:12.765Z,0.70
2023-01-24T21:06:41.596Z,0.70
2023-01-24T21:09:09.393Z,0.67
2023-01-24T21:11:37.198Z,0.70
2023-01-24T21:14:07.476Z,0.80
2023-01-24T21:16:36.856Z,0.80
2023-01-24T21:19:05.949Z,0.80
2023-01-24T21:21:35.214Z,0.70
2023-01-24T21:24:04.444Z,0.70
2023-01-24T21:26:32.298Z,0.70
2023-01-24T21:29:00.151Z,0.70
2023-01-24T21:31:30.174Z,0.70
2023-01-24T21:33:58.101Z,0.80
2023-01-24T21:36:27.757Z,0.70
2023-01-24T21:38:55.643Z,0.70
2023-01-24T21:41:41.728Z,0.70
2023-01-24T21:44:10.432Z,0.70
2023-01-24T21:46:39.768Z,0.70
2023-01-24T21:49:07.712Z,0.60
2023-01-24T21:51:38.102Z,0.70
2023-01-24T21:54:09.212Z,0.70
2023-01-24T21:56:57.513Z,0.70
2023-01-24T21:59:32.913Z,0.70
2023-01-24T22:02:02.928Z,0.70
2023-01-24T22:04:31.809Z,0.60
2023-01-24T22:06:59.988Z,0.60
2023-01-24T22:09:27.970Z,0.70
2023-01-24T22:11:55.780Z,0.60
2023-01-24T22:14:24.551Z,0.70
2023-01-24T22:16:53.399Z,0.70
2023-01-24T22:19:23.420Z,0.60
2023-01-24T22:22:01.474Z,0.60
2023-01-24T22:24:34.355Z,0.60
2023-01-24T22:27:03.770Z,0.50
2023-01-24T22:29:33.991Z,0.60
2023-01-24T22:32:02.420Z,0.63
2023-01-24T22:34:31.937Z,0.70
2023-01-24T22:37:00.943Z,0.80
2023-01-24T22:39:28.745Z,0.63
2023-01-24T22:41:56.436Z,0.70
2023-01-24T22:44:24.200Z,0.60
2023-01-24T22:46:52.123Z,0.53
2023-01-24T22:49:20.031Z,0.60
2023-01-24T22:51:49.248Z,0.70
2023-01-24T22:54:17.113Z,0.70
2023-01-24T22:56:44.840Z,0.70
2023-01-24T22:59:12.673Z,0.60
2023-01-24T23:01:40.494Z,0.60
2023-01-24T23:04:08.740Z,0.60
2023-01-24T23:06:37.035Z,0.80
2023-01-24T23:09:06.362Z,0.70
2023-01-24T23:11:35.006Z,0.60
2023-01-24T23:14:20.531Z,0.60
2023-01-24T23:16:52.877Z,0.70
2023-01-24T23:19:47.325Z,0.60
2023-01-24T23:22:16.136Z,0.70
2023-01-24T23:24:46.913Z,0.60
2023-01-24T23:27:15.245Z,0.70
2023-01-24T23:29:50.453Z,0.70
2023-01-24T23:32:21.859Z,0.70
2023-01-24T23:34:52.183Z,0.70
2023-01-24T23:37:19.936Z,0.80
2023-01-24T23:39:50.118Z,0.80
2023-01-24T23:42:18.000Z,0.70
2023-01-24T23:44:46.000Z,0.63
2023-01-24T23:47:13.918Z,0.70
2023-01-24T23:49:41.862Z,0.70
2023-01-24T23:52:09.816Z,0.70
2023-01-24T23:54:37.832Z,0.70
2023-01-24T23:57:07.201Z,0.70
2023-01-24T23:59:35.008Z,0.70
